createdAt,value
2019-01-05T00:01:04.733Z,102231.02
2019-01-05T00:03:52.973Z,102226.80
2019-01-05T00:06:39.980Z,102229.48
2019-01-05T00:09:29.368Z,102228.11
2019-01-05T00:12:14.848Z,102218.48
2019-01-05T00:15:07.549Z,102222.70
2019-01-05T00:18:06.662Z,102224.16
2019-01-05T00:20:45.217Z,102215.04
2019-01-05T00:23:31.455Z,102210.28
2019-01-05T00:26:21.212Z,102205.20
2019-01-05T00:29:07.012Z,102197.76
2019-01-05T00:31:50.018Z,102206.50
2019-01-05T00:34:51.580Z,102209.16
2019-01-05T00:37:53.041Z,102206.58
2019-01-05T00:40:38.571Z,102211.88
2019-01-05T00:43:31.589Z,102205.38
2019-01-05T00:46:17.885Z,102207.12
2019-01-05T00:49:04.879Z,102207.74
2019-01-05T00:51:52.032Z,102207.48
2019-01-05T00:54:56.991Z,102202.40
2019-01-05T00:57:43.027Z,102201.96
2019-01-05T01:00:29.797Z,102195.00
2019-01-05T01:03:34.682Z,102191.98
2019-01-05T01:06:16.082Z,102188.12
2019-01-05T01:09:03.217Z,102184.65
2019-01-05T01:11:56.093Z,102189.44
2019-01-05T01:14:41.012Z,102188.61
2019-01-05T01:17:36.520Z,102186.83
2019-01-05T01:20:29.243Z,102184.44
2019-01-05T01:23:14.561Z,102182.15
2019-01-05T01:26:07.506Z,102177.36
2019-01-05T01:28:52.793Z,102182.30
2019-01-05T01:31:38.022Z,102165.78
2019-01-05T01:34:23.289Z,102166.25
2019-01-05T01:37:08.704Z,102157.65
2019-01-05T01:39:58.663Z,102156.56
2019-01-05T01:42:44.125Z,102157.03
2019-01-05T01:45:34.389Z,102146.00
2019-01-05T01:48:10.667Z,102141.75
2019-01-05T01:50:57.200Z,102133.22
2019-01-05T01:53:42.601Z,102131.98
2019-01-05T01:56:29.831Z,102136.42
2019-01-05T01:59:30.197Z,102141.97
2019-01-05T02:02:28.163Z,102141.97
2019-01-05T02:05:18.554Z,102135.98
2019-01-05T02:08:15.688Z,102135.22
2019-01-05T02:11:16.747Z,102132.23
2019-01-05T02:14:04.103Z,102123.16
2019-01-05T02:17:06.676Z,102136.77
2019-01-05T02:20:34.499Z,102136.23
2019-01-05T02:24:14.608Z,102138.59
2019-01-05T02:27:43.782Z,102139.36
2019-01-05T02:31:36.135Z,102131.05
2019-01-05T02:35:21.454Z,102124.38
2019-01-05T02:38:49.347Z,102118.67
2019-01-05T02:42:16.503Z,102113.88
2019-01-05T02:45:46.286Z,102109.27
2019-01-05T02:48:57.767Z,102098.17
2019-01-05T02:52:00.795Z,102095.23
2019-01-05T02:55:39.402Z,102078.91
2019-01-05T02:59:30.161Z,102073.63
2019-01-05T03:02:54.498Z,102056.17
2019-01-05T03:06:00.491Z,102044.70
2019-01-05T03:09:34.063Z,102048.66
2019-01-05T03:12:55.933Z,102041.99
2019-01-05T03:16:38.949Z,102024.25
2019-01-05T03:20:07.080Z,102024.41
2019-01-05T03:23:31.260Z,102015.34
2019-01-05T03:26:55.344Z,102014.14
2019-01-05T03:30:40.402Z,102014.94
2019-01-05T03:34:01.044Z,101998.21
2019-01-05T03:37:26.181Z,102011.23
2019-01-05T03:40:59.195Z,102002.99
2019-01-05T03:44:51.458Z,101988.82
2019-01-05T03:48:14.695Z,101981.85
2019-01-05T03:51:43.457Z,101988.02
2019-01-05T03:55:08.781Z,101982.53
2019-01-05T03:58:41.335Z,101982.09
2019-01-05T04:02:37.244Z,101970.25
2019-01-05T04:06:11.306Z,101962.85
2019-01-05T04:10:08.129Z,101964.91
2019-01-05T04:13:35.211Z,101949.23
2019-01-05T04:17:12.519Z,101941.25
2019-01-05T04:20:54.413Z,101936.34
2019-01-05T04:24:40.715Z,101942.47
2019-01-05T04:28:06.383Z,101938.04
2019-01-05T04:31:41.788Z,101934.23
2019-01-05T04:35:03.574Z,101926.20
2019-01-05T04:38:20.732Z,101934.91
2019-01-05T04:41:36.672Z,101928.27
2019-01-05T04:44:49.697Z,101938.83
2019-01-05T04:47:53.898Z,101931.26
2019-01-05T04:51:17.262Z,101936.23
2019-01-05T04:54:54.788Z,101922.75
2019-01-05T04:58:13.013Z,101908.55
2019-01-05T05:01:24.539Z,101898.70
2019-01-05T05:04:59.355Z,101895.73
2019-01-05T05:08:32.701Z,101882.40
2019-01-05T05:11:49.245Z,101876.11
2019-01-05T05:15:36.765Z,101866.33
2019-01-05T05:18:50.597Z,101862.50
2019-01-05T05:22:39.391Z,101875.83
2019-01-05T05:25:55.638Z,101857.74
2019-01-05T05:29:50.738Z,101852.61
2019-01-05T05:33:10.278Z,101862.90
2019-01-05T05:36:36.534Z,101874.77
2019-01-05T05:40:01.606Z,101869.50
2019-01-05T05:43:25.461Z,101864.48
2019-01-05T05:46:54.375Z,101855.57
2019-01-05T05:50:05.771Z,101845.20
2019-01-05T05:53:43.719Z,101826.08
2019-01-05T05:56:30.761Z,101829.87
2019-01-05T05:59:38.320Z,101822.99
2019-01-05T06:03:00.870Z,101817.20
2019-01-05T06:06:23.357Z,101809.72
2019-01-05T06:10:02.202Z,101811.55
2019-01-05T06:13:32.442Z,101808.69
2019-01-05T06:17:03.428Z,101803.03
2019-01-05T06:20:19.097Z,101790.48
2019-01-05T06:23:47.663Z,101775.77
2019-01-05T06:27:03.710Z,101789.53
2019-01-05T06:30:42.608Z,101787.34
2019-01-05T06:34:27.684Z,101784.52
2019-01-05T06:37:34.874Z,101791.36
2019-01-05T06:41:13.735Z,101778.64
2019-01-05T06:44:43.238Z,101768.40
2019-01-05T06:48:07.948Z,101760.78
2019-01-05T06:51:40.579Z,101780.55
2019-01-05T06:55:04.950Z,101789.14
2019-01-05T06:58:27.408Z,101786.34
2019-01-05T07:02:09.415Z,101764.08
2019-01-05T07:05:32.535Z,101777.14
2019-01-05T07:08:53.968Z,101774.83
2019-01-05T07:12:24.055Z,101770.20
2019-01-05T07:15:58.849Z,101763.94
2019-01-05T07:19:32.503Z,101755.22
2019-01-05T07:22:58.160Z,101754.47
2019-01-05T07:26:33.758Z,101725.48
2019-01-05T07:30:09.043Z,101754.88
2019-01-05T07:33:33.037Z,101749.74
2019-01-05T07:36:53.368Z,101749.67
2019-01-05T07:40:23.915Z,101759.63
2019-01-05T07:43:51.776Z,101761.81
2019-01-05T07:47:03.641Z,101769.13
2019-01-05T07:50:24.269Z,101747.27
2019-01-05T07:54:09.562Z,101755.05
2019-01-05T07:57:38.161Z,101757.14
2019-01-05T08:00:57.747Z,101753.89
2019-01-05T08:04:30.357Z,101752.03
2019-01-05T08:08:03.390Z,101750.94
2019-01-05T08:11:29.338Z,101751.03
2019-01-05T08:14:54.836Z,101752.34
2019-01-05T08:18:21.711Z,101753.89
2019-01-05T08:21:54.761Z,101756.19
2019-01-05T08:25:32.415Z,101744.50
2019-01-05T08:29:23.776Z,101724.13
2019-01-05T08:32:47.032Z,101729.51
2019-01-05T08:36:31.877Z,101720.20
2019-01-05T08:39:55.103Z,101731.00
2019-01-05T08:43:18.216Z,101713.89
2019-01-05T08:47:23.779Z,101708.06
2019-01-05T08:50:32.913Z,101697.21
2019-01-05T08:53:58.378Z,101695.36
2019-01-05T08:57:26.811Z,101697.27
2019-01-05T09:00:49.760Z,101697.30
2019-01-05T09:04:25.532Z,101696.92
2019-01-05T09:08:00.663Z,101687.01
2019-01-05T09:11:19.278Z,101683.61
2019-01-05T09:14:45.030Z,101673.32
2019-01-05T09:18:10.796Z,101681.03
2019-01-05T09:21:22.232Z,101673.55
2019-01-05T09:24:49.518Z,101684.81
2019-01-05T09:28:03.557Z,101683.92
2019-01-05T09:31:40.713Z,101694.32
2019-01-05T09:35:34.369Z,101694.98
2019-01-05T09:39:08.370Z,101700.77
2019-01-05T09:42:34.264Z,101702.16
2019-01-05T09:45:45.138Z,101705.41
2019-01-05T09:48:59.369Z,101704.48
2019-01-05T09:52:22.838Z,101708.20
2019-01-05T09:55:44.077Z,101707.66
2019-01-05T09:59:30.540Z,101711.34
2019-01-05T10:03:00.901Z,101720.02
2019-01-05T10:06:47.427Z,101724.33
2019-01-05T10:09:59.180Z,101728.42
2019-01-05T10:13:24.153Z,101722.72
2019-01-05T10:16:42.216Z,101720.64
2019-01-05T10:20:19.167Z,101723.48
2019-01-05T10:23:54.890Z,101731.13
2019-01-05T10:27:19.633Z,101710.74
2019-01-05T10:31:01.147Z,101709.74
2019-01-05T10:34:19.593Z,101695.98
2019-01-05T10:37:54.519Z,101691.01
2019-01-05T10:41:20.716Z,101698.89
2019-01-05T10:44:51.902Z,101702.25
2019-01-05T10:48:03.680Z,101702.38
2019-01-05T10:51:20.796Z,101713.34
2019-01-05T10:54:53.118Z,101708.88
2019-01-05T10:58:42.143Z,101716.11
2019-01-05T11:02:11.761Z,101716.11
2019-01-05T11:05:40.695Z,101703.52
2019-01-05T11:08:57.699Z,101706.62
2019-01-05T11:12:32.468Z,101700.61
2019-01-05T11:15:54.797Z,101688.72
2019-01-05T11:19:44.239Z,101684.63
2019-01-05T11:23:05.457Z,101675.95
2019-01-05T11:26:30.997Z,101665.38
2019-01-05T11:30:10.157Z,101650.47
2019-01-05T11:33:27.710Z,101656.16
2019-01-05T11:37:00.687Z,101646.95
2019-01-05T11:40:48.933Z,101648.06
2019-01-05T11:44:14.382Z,101652.06
2019-01-05T11:47:43.811Z,101653.30
2019-01-05T11:51:08.130Z,101645.87
2019-01-05T11:54:31.360Z,101649.39
2019-01-05T11:58:28.357Z,101643.20
2019-01-05T12:01:55.841Z,101648.41
2019-01-05T12:05:31.970Z,101644.09
2019-01-05T12:08:50.309Z,101645.32
2019-01-05T12:12:26.029Z,101640.70
2019-01-05T12:16:05.312Z,101630.41
2019-01-05T12:20:00.721Z,101638.33
2019-01-05T12:23:20.384Z,101647.84
2019-01-05T12:26:41.986Z,101644.45
2019-01-05T12:30:03.810Z,101648.49
2019-01-05T12:33:35.757Z,101647.02
2019-01-05T12:37:10.468Z,101654.72
2019-01-05T12:40:30.216Z,101666.03
2019-01-05T12:43:52.356Z,101667.71
2019-01-05T12:47:13.172Z,101674.55
2019-01-05T12:50:34.808Z,101686.80
2019-01-05T12:54:11.117Z,101687.50
2019-01-05T12:58:18.339Z,101696.84
2019-01-05T13:01:41.847Z,101701.74
2019-01-05T13:05:16.206Z,101706.66
2019-01-05T13:08:36.293Z,101718.95
2019-01-05T13:11:51.109Z,101720.20
2019-01-05T13:15:28.985Z,101714.89
2019-01-05T13:18:56.129Z,101722.17
2019-01-05T13:22:53.451Z,101717.13
2019-01-05T13:26:31.803Z,101718.83
2019-01-05T13:30:20.115Z,101716.77
2019-01-05T13:34:02.415Z,101719.02
2019-01-05T13:37:35.845Z,101718.73
2019-01-05T13:41:18.098Z,101717.66
2019-01-05T13:44:58.309Z,101721.92
2019-01-05T13:48:37.496Z,101727.55
2019-01-05T13:52:11.911Z,101728.81
2019-01-05T13:54:58.542Z,101724.98
2019-01-05T13:57:44.250Z,101736.70
2019-01-05T14:00:28.063Z,101732.52
2019-01-05T14:03:14.867Z,101737.51
2019-01-05T14:06:07.610Z,101753.41
2019-01-05T14:09:09.572Z,101758.30
2019-01-05T14:11:59.022Z,101761.34
2019-01-05T14:14:52.171Z,101764.55
2019-01-05T14:17:37.497Z,101767.56
2019-01-05T14:20:22.255Z,101763.34
2019-01-05T14:23:07.223Z,101770.08
2019-01-05T14:25:57.009Z,101765.52
2019-01-05T14:28:43.926Z,101769.15
2019-01-05T14:31:33.527Z,101766.45
2019-01-05T14:34:23.405Z,101762.03
2019-01-05T14:37:10.161Z,101762.50
2019-01-05T14:40:14.913Z,101767.52
2019-01-05T14:43:07.374Z,101773.86
2019-01-05T14:45:54.519Z,101785.14
2019-01-05T14:48:56.723Z,101770.68
2019-01-05T14:51:58.483Z,101783.67
2019-01-05T14:54:43.774Z,101782.29
2019-01-05T14:57:28.870Z,101781.05
2019-01-05T15:00:14.189Z,101790.22
2019-01-05T15:03:06.769Z,101785.89
2019-01-05T15:05:48.052Z,101788.20
2019-01-05T15:08:33.515Z,101785.27
2019-01-05T15:11:23.316Z,101786.43
2019-01-05T15:14:10.262Z,101791.52
2019-01-05T15:16:55.426Z,101794.69
2019-01-05T15:20:00.449Z,101787.84
2019-01-05T15:22:58.978Z,101783.58
2019-01-05T15:25:44.264Z,101784.49
2019-01-05T15:28:29.519Z,101789.36
2019-01-05T15:31:14.713Z,101786.98
2019-01-05T15:34:01.699Z,101789.75
2019-01-05T15:37:00.426Z,101790.47
2019-01-05T15:39:53.094Z,101797.70
2019-01-05T15:42:39.925Z,101801.89
2019-01-05T15:45:41.600Z,101802.34
2019-01-05T15:48:27.104Z,101798.53
2019-01-05T15:51:19.549Z,101805.09
2019-01-05T15:54:08.375Z,101806.02
2019-01-05T15:56:55.408Z,101811.44
2019-01-05T15:59:40.781Z,101817.33
2019-01-05T16:02:29.227Z,101815.47
2019-01-05T16:05:18.879Z,101815.41
2019-01-05T16:08:04.288Z,101812.14
2019-01-05T16:10:52.695Z,101821.97
2019-01-05T16:13:51.370Z,101815.56
2019-01-05T16:16:47.071Z,101823.06
2019-01-05T16:19:32.712Z,101818.00
2019-01-05T16:22:18.350Z,101815.18
2019-01-05T16:25:03.428Z,101822.58
2019-01-05T16:27:53.059Z,101821.33
2019-01-05T16:30:51.739Z,101816.33
2019-01-05T16:33:53.479Z,101823.06
2019-01-05T16:36:38.432Z,101827.89
2019-01-05T16:39:28.589Z,101821.27
2019-01-05T16:42:13.998Z,101820.23
2019-01-05T16:44:59.562Z,101823.77
2019-01-05T16:47:49.320Z,101822.83
2019-01-05T16:50:34.570Z,101815.95
2019-01-05T16:53:27.221Z,101822.12
2019-01-05T16:56:14.039Z,101830.67
2019-01-05T16:59:00.880Z,101820.72
2019-01-05T17:01:52.230Z,101820.43
2019-01-05T17:04:56.925Z,101815.15
2019-01-05T17:07:44.046Z,101816.27
2019-01-05T17:10:37.873Z,101814.28
2019-01-05T17:13:42.669Z,101817.93
2019-01-05T17:16:47.394Z,101813.32
2019-01-05T17:19:36.494Z,101812.63
2019-01-05T17:22:22.993Z,101810.63
2019-01-05T17:25:07.346Z,101808.75
2019-01-05T17:28:00.403Z,101802.79
2019-01-05T17:30:45.882Z,101809.41
2019-01-05T17:33:47.560Z,101809.19
2019-01-05T17:36:52.671Z,101810.89
2019-01-05T17:39:50.357Z,101809.29
2019-01-05T17:42:41.099Z,101814.00
2019-01-05T17:45:27.031Z,101811.91
2019-01-05T17:48:25.900Z,101814.66
2019-01-05T17:51:11.000Z,101814.28
2019-01-05T17:53:56.118Z,101820.84
2019-01-05T17:56:49.471Z,101816.87
2019-01-05T17:59:48.169Z,101813.06
2019-01-05T18:02:49.819Z,101822.63
2019-01-05T18:05:35.586Z,101824.78
2019-01-05T18:08:28.348Z,101824.27
2019-01-05T18:11:14.541Z,101821.28
2019-01-05T18:13:58.454Z,101832.17
2019-01-05T18:16:45.825Z,101834.14
2019-01-05T18:19:38.400Z,101833.15
2019-01-05T18:22:33.870Z,101834.45
2019-01-05T18:25:35.722Z,101842.95
2019-01-05T18:28:37.165Z,101842.22
2019-01-05T18:31:30.080Z,101838.80
2019-01-05T18:34:15.414Z,101833.03
2019-01-05T18:37:00.602Z,101834.06
2019-01-05T18:39:45.794Z,101827.52
2019-01-05T18:42:41.318Z,101827.80
2019-01-05T18:45:39.832Z,101829.05
2019-01-05T18:48:38.436Z,101828.94
2019-01-05T18:51:31.024Z,101831.02
2019-01-05T18:54:15.939Z,101837.23
2019-01-05T18:57:01.546Z,101826.37
2019-01-05T18:59:48.297Z,101826.59
2019-01-05T19:02:35.190Z,101838.62
2019-01-05T19:05:25.010Z,101832.99
2019-01-05T19:08:10.549Z,101821.89
2019-01-05T19:10:55.785Z,101830.41
2019-01-05T19:13:45.701Z,101821.12
2019-01-05T19:16:31.007Z,101823.63
2019-01-05T19:19:16.484Z,101823.41
2019-01-05T19:22:02.093Z,101821.58
2019-01-05T19:24:57.765Z,101816.23
2019-01-05T19:27:44.372Z,101815.59
2019-01-05T19:30:29.836Z,101814.28
2019-01-05T19:33:22.105Z,101817.00
2019-01-05T19:36:14.435Z,101819.81
2019-01-05T19:39:12.989Z,101818.98
2019-01-05T19:42:00.067Z,101824.13
2019-01-05T19:44:45.182Z,101818.62
2019-01-05T19:47:30.253Z,101823.48
2019-01-05T19:50:32.180Z,101816.19
2019-01-05T19:53:23.063Z,101828.62
2019-01-05T19:56:08.608Z,101822.32
2019-01-05T19:58:53.742Z,101825.65
2019-01-05T20:01:46.300Z,101833.14
2019-01-05T20:04:36.094Z,101829.70
2019-01-05T20:07:21.311Z,101831.40
2019-01-05T20:10:07.017Z,101831.62
2019-01-05T20:12:59.887Z,101831.13
2019-01-05T20:15:49.483Z,101832.85
2019-01-05T20:18:35.514Z,101839.70
2019-01-05T20:21:21.202Z,101838.65
2019-01-05T20:24:14.029Z,101837.84
2019-01-05T20:26:53.781Z,101836.48
2019-01-05T20:29:35.303Z,101833.27
2019-01-05T20:32:20.377Z,101829.87
2019-01-05T20:35:05.538Z,101819.31
2019-01-05T20:37:45.963Z,101824.27
2019-01-05T20:40:41.867Z,101824.27
2019-01-05T20:43:37.962Z,101816.08
2019-01-05T20:46:23.320Z,101826.92
2019-01-05T20:49:08.770Z,101819.11
2019-01-05T20:52:13.471Z,101823.87
2019-01-05T20:54:58.790Z,101827.91
2019-01-05T20:57:57.675Z,101824.68
2019-01-05T21:00:47.413Z,101826.58
2019-01-05T21:03:34.751Z,101831.34
2019-01-05T21:06:20.094Z,101831.78
2019-01-05T21:09:24.999Z,101830.63
2019-01-05T21:12:10.213Z,101837.31
2019-01-05T21:14:57.245Z,101836.86
2019-01-05T21:17:42.502Z,101831.72
2019-01-05T21:20:25.578Z,101830.86
2019-01-05T21:23:27.547Z,101835.38
2019-01-05T21:26:29.531Z,101833.70
2019-01-05T21:29:14.731Z,101838.95
2019-01-05T21:31:54.698Z,101835.66
2019-01-05T21:34:36.485Z,101845.66
2019-01-05T21:37:32.326Z,101855.19
2019-01-05T21:40:18.253Z,101852.17
2019-01-05T21:42:57.368Z,101852.72
2019-01-05T21:46:01.841Z,101851.47
2019-01-05T21:48:46.805Z,101849.40
2019-01-05T21:51:39.642Z,101850.87
2019-01-05T21:54:41.034Z,101854.41
2019-01-05T21:57:22.275Z,101847.05
2019-01-05T22:00:09.047Z,101847.31
2019-01-05T22:03:01.835Z,101841.63
2019-01-05T22:05:48.548Z,101844.48
2019-01-05T22:08:47.214Z,101837.42
2019-01-05T22:11:26.344Z,101840.70
2019-01-05T22:14:22.302Z,101842.95
2019-01-05T22:17:07.209Z,101841.58
2019-01-05T22:19:52.175Z,101839.01
2019-01-05T22:22:49.831Z,101841.30
2019-01-05T22:25:54.889Z,101828.73
2019-01-05T22:28:33.125Z,101829.27
2019-01-05T22:31:26.493Z,101826.37
2019-01-05T22:34:13.269Z,101828.19
2019-01-05T22:37:03.541Z,101806.53
2019-01-05T22:39:48.960Z,101807.80
2019-01-05T22:42:34.639Z,101818.78
2019-01-05T22:45:39.415Z,101815.78
2019-01-05T22:48:31.635Z,101807.59
2019-01-05T22:51:18.829Z,101809.55
2019-01-05T22:54:04.373Z,101814.45
2019-01-05T22:56:49.958Z,101816.75
2019-01-05T22:59:32.050Z,101816.36
2019-01-05T23:02:22.667Z,101817.20
2019-01-05T23:05:12.243Z,101813.48
2019-01-05T23:07:59.322Z,101815.07
2019-01-05T23:10:44.562Z,101810.75
2019-01-05T23:13:31.187Z,101808.61
2019-01-05T23:16:27.107Z,101819.48
2019-01-05T23:19:12.638Z,101818.62
2019-01-05T23:21:59.477Z,101825.94
2019-01-05T23:25:03.965Z,101823.02
2019-01-05T23:27:51.221Z,101823.41
2019-01-05T23:30:43.843Z,101831.55
2019-01-05T23:33:43.112Z,101838.37
2019-01-05T23:36:28.405Z,101844.59
2019-01-05T23:39:30.120Z,101840.25
2019-01-05T23:42:09.623Z,101847.22
2019-01-05T23:44:54.535Z,101847.28
2019-01-05T23:47:59.043Z,101839.47
2019-01-05T23:50:45.825Z,101846.33
2019-01-05T23:53:29.827Z,101852.12
2019-01-05T23:56:19.760Z,101852.12
2019-01-05T23:59:05.445Z,101851.51
